Terminal Aerodrome Forecast
Issued by NWS

Home | Current Version | Previous Version | Text Only | Print | Product List | Glossary On
Versions: 1 2 3 4 5 6 7 8 9 10 11 12 13 14 15 16 17 18 19 20 21 22 23 24 25 26 27 28 29 30 31 32 33 34 35 36 37 38 39 40 41 42 43 44 45
000
FTUS46 KEKA 280534
TAFACV
TAF
KACV 280534Z 2806/2906 08004KT P6SM FEW050 BKN120
     FM280900 05003KT P6SM -RA FEW025 BKN050 OVC100
     FM281400 VRB02KT P6SM BKN050 BKN100
     FM281900 33008KT P6SM FEW050 SCT100=

USA.gov is the U.S. government's official web portal to all federal, state and local government web resources and services.